HFP weather

Poligono 3 Heliport
Alvaro Obregon, Distrito Federal, Mexico

Public forecast

Using degrees Celsius for public forecast. Weather courtesy of forecast.io.

METAR (pilot weather report)

Closest report is Licenciado Benito Juarez International Airport, 10.3 nm (19.1 km) ENE. Retrieved 2019/08/19 18:45 UTC (46 minutes ago):

MMMX 191845Z 36011KT 9SM BKN020 BKN250 22/09 A3029 NOSIG RMK 8/208 HZY AC

TAF (pilot weather forecast)

Closest forecast is Licenciado Benito Juarez International Airport, 10.3 nm (19.1 km) ENE. Retrieved 2019/08/19 18:06 UTC (1 hour ago):

TAF MMMX 191703Z 1918/2024 06012KT P6SM SCT025 BKN100 TX27/1921Z TN15/2012Z FM192100 06015G25KT P6SM BKN030 TEMPO 1923/2003 6SM TSRA BKN020CB FM200300 04012KT P6SM SCT020 BKN100 FM200600 04010KT P6SM SCT025 FM201800 12010KT P6SM BKN025 PROB40 2021/2024 5SM TSRA BKN025CB